createdAt,value
2019-03-30T03:07:25.770Z,26.6
2019-03-30T03:08:16.238Z,26.3
2019-03-30T03:09:06.252Z,26.2
2019-03-30T03:09:55.797Z,26.1
2019-03-30T03:10:46.564Z,26.1
2019-03-30T03:11:35.291Z,26
2019-03-30T03:12:25.369Z,26
2019-03-30T03:13:14.917Z,26
2019-03-30T03:14:06.118Z,25.9
2019-03-30T03:14:55.229Z,25.9
2019-03-30T03:15:45.734Z,25.9
2019-03-30T03:16:38.505Z,25.6
2019-03-30T03:17:26.822Z,25.9
2019-03-30T03:18:17.273Z,25.9
2019-03-30T03:19:06.519Z,25.8
2019-03-30T03:19:55.847Z,25.7
2019-03-30T03:20:46.367Z,25.7
2019-03-30T03:21:36.004Z,25.8
2019-03-30T03:22:26.402Z,25.9
2019-03-30T03:23:17.151Z,26.2
2019-03-30T03:24:07.288Z,26.5
2019-03-30T03:24:56.787Z,26.7
2019-03-30T03:25:46.845Z,26.9
2019-03-30T03:26:37.003Z,27.1
2019-03-30T03:27:27.229Z,27.2
2019-03-30T03:28:17.976Z,27.1
2019-03-30T03:29:07.398Z,27.1
2019-03-30T03:29:57.226Z,27.1
2019-03-30T03:30:47.969Z,27.2
2019-03-30T03:31:38.113Z,27.1
2019-03-30T03:32:27.605Z,27
2019-03-30T03:33:18.587Z,26.9
2019-03-30T03:34:08.939Z,26.8
2019-03-30T03:34:58.228Z,26.8
2019-03-30T03:35:48.011Z,26.9
2019-03-30T03:36:37.787Z,27.1
2019-03-30T03:37:48.939Z,27.3
2019-03-30T03:38:17.938Z,27.4
2019-03-30T03:39:08.373Z,27.4
2019-03-30T03:39:57.843Z,27.4
2019-03-30T03:40:48.195Z,27.4
2019-03-30T03:41:38.623Z,27.4
2019-03-30T03:42:28.637Z,27.4
2019-03-30T03:43:18.086Z,27.4
2019-03-30T03:44:08.132Z,27.4
2019-03-30T03:44:57.903Z,27.3
2019-03-30T03:45:48.878Z,27.1
2019-03-30T03:46:37.908Z,26.8
2019-03-30T03:47:28.028Z,26.5
2019-03-30T03:48:18.904Z,26.4
2019-03-30T03:49:07.677Z,26.3
2019-03-30T03:49:59.238Z,26.2
2019-03-30T03:50:48.583Z,26.2
2019-03-30T03:51:39.494Z,26.1
2019-03-30T03:52:28.473Z,26.1
2019-03-30T03:53:17.789Z,26.1
2019-03-30T03:54:08.209Z,26
2019-03-30T03:54:58.806Z,26
2019-03-30T03:55:48.669Z,25.8
2019-03-30T03:56:39.879Z,25.9
2019-03-30T03:57:29.459Z,26.1
2019-03-30T03:58:20.057Z,25.8
2019-03-30T03:59:09.041Z,25.8
2019-03-30T03:59:58.132Z,25.8
2019-03-30T04:00:49.795Z,25.8
2019-03-30T04:01:40.267Z,26
2019-03-30T04:02:29.171Z,26.3
2019-03-30T04:03:20.181Z,26.6
2019-03-30T04:04:10.009Z,26.8
2019-03-30T04:04:59.947Z,27
2019-03-30T04:05:50.749Z,27.1
2019-03-30T04:06:40.217Z,27.3
2019-03-30T04:07:30.435Z,27.3
2019-03-30T04:08:20.288Z,27.3
2019-03-30T04:09:10.279Z,27.4
2019-03-30T04:09:59.553Z,27.4
2019-03-30T04:10:50.778Z,27.4
2019-03-30T04:11:39.630Z,27.4
2019-03-30T04:12:30.507Z,27.4
2019-03-30T04:13:20.188Z,27.4
2019-03-30T04:14:11.239Z,27.3
2019-03-30T04:14:59.781Z,27
2019-03-30T04:15:50.956Z,26.6
2019-03-30T04:16:40.976Z,26.4
2019-03-30T04:17:30.188Z,26.3
2019-03-30T04:18:21.000Z,26.1
2019-03-30T04:19:11.077Z,26.1
2019-03-30T04:20:01.214Z,26.1
2019-03-30T04:20:50.706Z,26
2019-03-30T04:21:54.530Z,26
2019-03-30T04:22:29.746Z,26
2019-03-30T04:23:20.365Z,26
2019-03-30T04:24:11.007Z,25.9
2019-03-30T04:25:00.556Z,25.8
2019-03-30T04:25:50.533Z,25.7
2019-03-30T04:26:40.399Z,25.9
2019-03-30T04:27:31.318Z,25.7
2019-03-30T04:28:21.483Z,25.7
2019-03-30T04:29:11.488Z,25.8
2019-03-30T04:30:02.310Z,25.8
2019-03-30T04:30:51.265Z,25.9
2019-03-30T04:31:42.376Z,26.1
2019-03-30T04:32:31.703Z,26.4
2019-03-30T04:33:22.390Z,26.7
2019-03-30T04:34:11.601Z,26.9
2019-03-30T04:35:01.492Z,27.1
2019-03-30T04:35:51.552Z,27.2
2019-03-30T04:36:40.805Z,27.3
2019-03-30T04:37:31.143Z,27.3
2019-03-30T04:38:25.526Z,27.3
2019-03-30T04:39:12.022Z,27.3
2019-03-30T04:40:02.537Z,27.3
2019-03-30T04:40:52.369Z,27.3
2019-03-30T04:41:42.412Z,27.3
2019-03-30T04:42:32.720Z,27.3
2019-03-30T04:43:22.625Z,27.3
2019-03-30T04:44:12.687Z,27.3
2019-03-30T04:45:03.327Z,27.1
2019-03-30T04:45:53.182Z,26.6
2019-03-30T04:46:42.629Z,26.4
2019-03-30T04:47:33.279Z,26.2
2019-03-30T04:48:23.301Z,26.1
2019-03-30T04:49:13.288Z,26.1
2019-03-30T04:50:03.042Z,26
2019-03-30T04:50:52.011Z,26
2019-03-30T04:51:42.033Z,25.9
2019-03-30T04:52:32.443Z,25.9
2019-03-30T04:53:22.705Z,25.9
2019-03-30T04:54:12.536Z,25.9
2019-03-30T04:55:03.342Z,25.6
2019-03-30T04:55:53.019Z,25.9
2019-03-30T04:56:43.583Z,25.9
2019-03-30T04:57:33.385Z,25.7
2019-03-30T04:58:22.851Z,25.7
2019-03-30T04:59:13.408Z,25.7
2019-03-30T05:00:03.973Z,25.8
2019-03-30T05:00:54.137Z,25.9
2019-03-30T05:01:44.505Z,26.2
2019-03-30T05:02:33.304Z,26.5
2019-03-30T05:03:23.687Z,26.8
2019-03-30T05:04:14.080Z,26.9
2019-03-30T05:05:04.853Z,27.1
2019-03-30T05:05:54.137Z,27.2
2019-03-30T05:06:44.488Z,27.3
2019-03-30T05:07:34.228Z,27.3
2019-03-30T05:08:24.558Z,27.3
2019-03-30T05:09:14.923Z,27.3
2019-03-30T05:10:05.320Z,27.3
2019-03-30T05:10:54.010Z,27.3
2019-03-30T05:11:45.108Z,27.3
2019-03-30T05:12:34.855Z,27.3
2019-03-30T05:13:24.367Z,27.3
2019-03-30T05:14:15.310Z,27
2019-03-30T05:15:05.402Z,26.6
2019-03-30T05:15:54.551Z,26.3
2019-03-30T05:16:45.221Z,26.2
2019-03-30T05:17:54.379Z,26.1
2019-03-30T05:18:24.242Z,26
2019-03-30T05:19:15.024Z,26
2019-03-30T05:20:05.399Z,25.9
2019-03-30T05:20:55.704Z,25.9
2019-03-30T05:21:43.986Z,25.9
2019-03-30T05:22:35.172Z,25.9
2019-03-30T05:23:24.659Z,25.9
2019-03-30T05:24:14.950Z,25.6
2019-03-30T05:25:05.657Z,25.8
2019-03-30T05:25:55.065Z,25.9
2019-03-30T05:26:46.155Z,25.7
2019-03-30T05:27:35.949Z,25.7
2019-03-30T05:28:26.096Z,25.7
2019-03-30T05:29:15.531Z,25.8
2019-03-30T05:30:06.707Z,25.9
2019-03-30T05:30:55.671Z,26.2
2019-03-30T05:31:45.985Z,26.5
2019-03-30T05:32:36.341Z,26.8
2019-03-30T05:33:26.606Z,26.9
2019-03-30T05:34:16.136Z,27.1
2019-03-30T05:35:05.969Z,27.2
2019-03-30T05:35:56.512Z,27.3
2019-03-30T05:36:46.091Z,27.3
2019-03-30T05:37:36.704Z,27.3
2019-03-30T05:38:27.097Z,27.3
2019-03-30T05:39:16.753Z,27.3
2019-03-30T05:40:07.129Z,27.3
2019-03-30T05:40:57.039Z,27.3
2019-03-30T05:41:47.006Z,27.3
2019-03-30T05:42:37.263Z,27.3
2019-03-30T05:43:27.116Z,26.9
2019-03-30T05:44:16.601Z,26.6
2019-03-30T05:45:08.645Z,26.4
2019-03-30T05:45:56.146Z,26.2
2019-03-30T05:46:46.432Z,26.1
2019-03-30T05:47:36.547Z,26.1
2019-03-30T05:48:26.904Z,26
2019-03-30T05:49:17.188Z,26
2019-03-30T05:50:07.800Z,26
2019-03-30T05:50:56.601Z,25.9
2019-03-30T05:51:46.837Z,25.9
2019-03-30T05:52:41.033Z,25.9
2019-03-30T05:53:27.294Z,25.6
2019-03-30T05:54:18.073Z,25.8
2019-03-30T05:55:08.208Z,25.8
2019-03-30T05:55:57.498Z,25.7
2019-03-30T05:56:47.988Z,25.6
2019-03-30T05:57:37.335Z,25.7
2019-03-30T05:58:27.934Z,25.8
2019-03-30T05:59:18.258Z,25.9
2019-03-30T06:00:07.397Z,26.3
2019-03-30T06:00:58.097Z,26.5
2019-03-30T06:01:47.392Z,26.8
2019-03-30T06:02:38.420Z,26.9
2019-03-30T06:05:26.047Z,27.2
2019-03-30T06:06:15.824Z,27.3
2019-03-30T06:07:06.055Z,27.3
2019-03-30T06:07:56.110Z,27.3
2019-03-30T06:08:46.060Z,27.3
2019-03-30T06:09:35.285Z,27.3
2019-03-30T06:10:25.851Z,27.2
2019-03-30T06:11:15.106Z,27.2
2019-03-30T06:12:06.235Z,27.2
2019-03-30T06:12:56.128Z,27.2
2019-03-30T06:13:46.392Z,27.1
2019-03-30T06:14:36.647Z,27.1
2019-03-30T06:15:26.291Z,27.1
2019-03-30T06:16:15.966Z,27.1
2019-03-30T06:17:06.621Z,27
2019-03-30T06:17:56.092Z,27
2019-03-30T06:18:46.176Z,26.9
2019-03-30T06:19:36.832Z,26.9
2019-03-30T06:20:25.986Z,26.9
2019-03-30T06:21:16.899Z,26.9
2019-03-30T06:22:06.728Z,26.8
2019-03-30T06:22:56.451Z,26.1
2019-03-30T06:23:50.538Z,26.2
2019-03-30T06:24:36.292Z,26.1
2019-03-30T06:25:27.184Z,25.8
2019-03-30T06:26:16.307Z,25.7
2019-03-30T06:27:07.052Z,25.7
2019-03-30T06:27:56.823Z,25.8
2019-03-30T06:28:47.466Z,26
2019-03-30T06:29:36.690Z,26.3
2019-03-30T06:30:27.391Z,26.6
2019-03-30T06:31:17.610Z,26.8
2019-03-30T06:32:07.329Z,27
2019-03-30T06:32:57.733Z,27.1
2019-03-30T06:33:47.795Z,27.1
2019-03-30T06:34:38.176Z,27.2
2019-03-30T06:35:28.300Z,27.2
2019-03-30T06:36:18.313Z,27.2
2019-03-30T06:37:07.829Z,27.2
2019-03-30T06:37:58.116Z,27.3
2019-03-30T06:38:47.843Z,27.2
2019-03-30T06:39:41.616Z,27.2
2019-03-30T06:40:28.603Z,27.2
2019-03-30T06:41:18.280Z,27.1
2019-03-30T06:42:08.097Z,27.1
2019-03-30T06:42:58.535Z,27.1
2019-03-30T06:43:47.748Z,27.1
2019-03-30T06:44:36.887Z,27.1
2019-03-30T06:45:28.410Z,27.1
2019-03-30T06:46:18.675Z,27.1
2019-03-30T06:47:08.903Z,27
2019-03-30T06:47:59.115Z,27
2019-03-30T06:48:49.172Z,27
2019-03-30T06:49:39.204Z,26.9
2019-03-30T06:50:29.264Z,26.9
2019-03-30T06:51:18.753Z,26.6
2019-03-30T06:52:09.172Z,26.1
2019-03-30T06:53:09.594Z,26.1
2019-03-30T06:53:49.477Z,25.9
2019-03-30T06:54:39.557Z,25.8
2019-03-30T06:55:29.374Z,25.7
2019-03-30T06:56:19.464Z,25.7
2019-03-30T06:57:09.722Z,25.8
2019-03-30T06:57:59.320Z,26.1
2019-03-30T06:58:49.622Z,26.4
2019-03-30T06:59:39.919Z,26.6
2019-03-30T07:00:28.884Z,26.9
2019-03-30T07:01:19.039Z,27
2019-03-30T07:02:09.424Z,27.1
2019-03-30T07:02:59.681Z,27.1
2019-03-30T07:05:25.514Z,27.2
2019-03-30T07:06:15.921Z,27.2
2019-03-30T07:07:05.638Z,27.2
2019-03-30T07:07:56.215Z,27.2
2019-03-30T07:08:45.873Z,27.2
2019-03-30T07:09:36.303Z,27.2
2019-03-30T07:10:26.131Z,27.1
2019-03-30T07:11:31.453Z,27.1
2019-03-30T07:12:06.642Z,27.1
2019-03-30T07:12:56.259Z,27.1
2019-03-30T07:13:46.425Z,27.1
2019-03-30T07:14:36.643Z,27
2019-03-30T07:15:26.451Z,27
2019-03-30T07:16:15.841Z,26.9
2019-03-30T07:17:09.949Z,26.9
2019-03-30T07:17:56.408Z,26.9
2019-03-30T07:18:45.910Z,26.9
2019-03-30T07:19:50.334Z,26.8
2019-03-30T07:20:26.352Z,26.8
2019-03-30T07:21:16.632Z,26.3
2019-03-30T07:22:07.005Z,26.2
2019-03-30T07:23:15.720Z,26.2
2019-03-30T07:23:46.215Z,25.8
2019-03-30T07:24:36.855Z,25.7
2019-03-30T07:25:26.860Z,25.7
2019-03-30T07:26:17.209Z,25.8
2019-03-30T07:27:07.350Z,25.9
2019-03-30T07:27:57.615Z,26.3
2019-03-30T07:28:49.605Z,26.6
2019-03-30T07:29:37.722Z,26.8
2019-03-30T07:30:27.535Z,27
2019-03-30T07:31:17.525Z,27.1
2019-03-30T07:32:08.141Z,27.1
2019-03-30T07:32:58.010Z,27.2
2019-03-30T07:33:47.712Z,27.3
2019-03-30T07:34:37.827Z,27.3
2019-03-30T07:35:27.047Z,27.3
2019-03-30T07:36:17.631Z,27.3
2019-03-30T07:37:07.732Z,27.3
2019-03-30T07:37:57.856Z,27.3
2019-03-30T07:38:48.087Z,27.2
2019-03-30T07:39:38.487Z,27.2
2019-03-30T07:40:27.946Z,27.2
2019-03-30T07:41:17.509Z,27.2
2019-03-30T07:42:08.121Z,27.1
2019-03-30T07:42:57.917Z,27.1
2019-03-30T07:43:48.248Z,27.1
2019-03-30T07:44:37.169Z,27.1
2019-03-30T07:45:28.604Z,27.1
2019-03-30T07:46:22.017Z,27
2019-03-30T07:47:08.999Z,26.9
2019-03-30T07:47:58.201Z,26.9
2019-03-30T07:48:48.829Z,26.9
2019-03-30T07:49:38.949Z,26.9
2019-03-30T07:50:28.644Z,26.9
2019-03-30T07:51:18.178Z,26.8
2019-03-30T07:52:09.220Z,26.8
2019-03-30T07:52:58.861Z,26.6
2019-03-30T07:53:55.550Z,26.1
2019-03-30T07:54:39.246Z,26.3
2019-03-30T07:55:29.128Z,25.9
2019-03-30T07:56:20.278Z,25.7
2019-03-30T07:57:27.137Z,25.6
2019-03-30T07:58:00.944Z,25.6
2019-03-30T07:58:49.330Z,25.8
2019-03-30T07:59:39.754Z,26.1
2019-03-30T08:00:37.038Z,26.4
2019-03-30T08:01:34.191Z,26.7
2019-03-30T08:02:09.494Z,26.9
2019-03-30T08:03:14.801Z,27
2019-03-30T08:03:50.202Z,27.1
2019-03-30T08:04:40.154Z,27.1
2019-03-30T08:05:29.780Z,27.1
2019-03-30T08:06:20.204Z,27.2
2019-03-30T08:07:09.908Z,27.2
2019-03-30T08:07:59.957Z,27.2
2019-03-30T08:08:50.291Z,27.2
2019-03-30T08:09:43.908Z,27.2
2019-03-30T08:10:28.965Z,27.2
2019-03-30T08:11:23.720Z,27.1
2019-03-30T08:12:10.500Z,27.1
2019-03-30T08:13:00.105Z,27.1
2019-03-30T08:13:50.387Z,27.1
2019-03-30T08:14:39.836Z,27.1
2019-03-30T08:15:30.774Z,27
2019-03-30T08:16:20.635Z,27
2019-03-30T08:17:10.853Z,27
2019-03-30T08:18:01.325Z,27
2019-03-30T08:18:51.238Z,26.9
2019-03-30T08:19:40.375Z,26.9
2019-03-30T08:20:31.085Z,26.9
2019-03-30T08:21:21.135Z,26.9
2019-03-30T08:22:10.702Z,26.8
2019-03-30T08:23:01.572Z,26.8
2019-03-30T08:23:52.042Z,26.8
2019-03-30T08:24:41.159Z,26.6
2019-03-30T08:25:30.930Z,26.1
2019-03-30T08:26:21.479Z,26.2
2019-03-30T08:27:11.716Z,25.9
2019-03-30T08:28:16.128Z,25.7
2019-03-30T08:28:52.051Z,25.6
2019-03-30T08:29:41.490Z,25.6
2019-03-30T08:30:31.821Z,25.8
2019-03-30T08:31:21.637Z,26.1
2019-03-30T08:32:11.949Z,26.4
2019-03-30T08:33:01.249Z,26.7
2019-03-30T08:33:51.591Z,26.9
2019-03-30T08:34:42.147Z,27
2019-03-30T08:35:32.214Z,27.1
2019-03-30T08:36:22.050Z,27.1
2019-03-30T08:37:11.996Z,27.1
2019-03-30T08:38:02.340Z,27.2
2019-03-30T08:38:52.477Z,27.3
2019-03-30T08:39:41.739Z,27.3
2019-03-30T08:40:32.630Z,27.3
2019-03-30T08:41:23.251Z,27.3
2019-03-30T08:42:12.981Z,27.3
2019-03-30T08:43:02.491Z,27.2
2019-03-30T08:43:53.053Z,27.2
2019-03-30T08:44:42.709Z,27.2
2019-03-30T08:45:32.698Z,27.2
2019-03-30T08:46:22.873Z,27.1
2019-03-30T08:47:12.064Z,27.1
2019-03-30T08:48:03.071Z,27.1
2019-03-30T08:48:52.375Z,27.1
2019-03-30T08:49:43.163Z,27.1
2019-03-30T08:50:32.418Z,27.1
2019-03-30T08:51:27.028Z,27
2019-03-30T08:52:13.083Z,27
2019-03-30T08:53:03.576Z,26.9
2019-03-30T08:54:05.820Z,26.9
2019-03-30T08:54:43.823Z,26.9
2019-03-30T08:55:34.208Z,26.9
2019-03-30T08:56:23.690Z,26.9
2019-03-30T08:57:12.948Z,26.3
2019-03-30T08:58:03.553Z,26.3
2019-03-30T08:58:52.853Z,26.3
2019-03-30T08:59:44.200Z,25.8
2019-03-30T09:00:33.160Z,25.7
2019-03-30T09:01:38.127Z,25.6
2019-03-30T09:02:13.817Z,25.7
2019-03-30T09:03:04.510Z,25.9
2019-03-30T09:03:54.270Z,26.3
2019-03-30T09:04:43.992Z,26.6
2019-03-30T09:05:34.321Z,26.8
2019-03-30T09:06:24.664Z,26.8
2019-03-30T09:07:14.477Z,26.8
2019-03-30T09:08:03.758Z,26.5
2019-03-30T09:08:54.831Z,26.3
2019-03-30T09:09:43.600Z,26.2
2019-03-30T09:10:33.942Z,26.1
2019-03-30T09:11:24.447Z,26.1
2019-03-30T09:12:14.404Z,26.1
2019-03-30T09:13:04.682Z,26.1
2019-03-30T09:13:54.745Z,26.1
2019-03-30T09:14:44.707Z,26.1
2019-03-30T09:15:35.109Z,26.1
2019-03-30T09:16:24.949Z,26.1
2019-03-30T09:17:15.177Z,26.1
2019-03-30T09:18:05.537Z,26.1
2019-03-30T09:18:55.094Z,26.1
2019-03-30T09:19:44.891Z,26.1
2019-03-30T09:20:34.974Z,26.1
2019-03-30T09:21:24.259Z,26.1
2019-03-30T09:22:15.424Z,26.1
2019-03-30T09:23:05.941Z,26.1
2019-03-30T09:24:26.154Z,26.1
2019-03-30T09:24:45.209Z,26.1
2019-03-30T09:25:35.764Z,26.1
2019-03-30T09:26:27.399Z,26.1
2019-03-30T09:27:15.606Z,26.1
2019-03-30T09:28:05.781Z,26
2019-03-30T09:28:55.226Z,26.1
2019-03-30T09:29:45.891Z,25.8
2019-03-30T09:30:35.981Z,25.8
2019-03-30T09:31:25.768Z,26.3
2019-03-30T09:32:25.318Z,25.8
2019-03-30T09:33:06.365Z,25.6
2019-03-30T09:33:55.363Z,25.5
2019-03-30T09:34:45.961Z,25.5
2019-03-30T09:35:35.894Z,25.7
2019-03-30T09:36:26.110Z,26.1
2019-03-30T09:37:15.653Z,26.4
2019-03-30T09:38:05.671Z,26.7
2019-03-30T09:38:56.103Z,26.8
2019-03-30T09:39:45.670Z,26.9
2019-03-30T09:40:35.066Z,26.9
2019-03-30T09:41:26.213Z,27
2019-03-30T09:42:16.301Z,27.1
2019-03-30T09:43:05.601Z,27.1
2019-03-30T09:43:56.685Z,27.1
2019-03-30T09:44:46.359Z,27.1
2019-03-30T09:45:36.890Z,27.1
2019-03-30T09:46:26.489Z,27.1
2019-03-30T09:47:16.661Z,27.1
2019-03-30T09:48:07.220Z,27.1
2019-03-30T09:48:56.200Z,27.1
2019-03-30T09:49:46.466Z,27.1
2019-03-30T09:50:36.825Z,27.1
2019-03-30T09:51:27.135Z,27.1
2019-03-30T09:52:15.579Z,27
2019-03-30T09:53:07.088Z,27
2019-03-30T09:53:56.185Z,27
2019-03-30T09:54:46.931Z,27
2019-03-30T09:55:38.050Z,27
2019-03-30T09:56:26.994Z,26.9
2019-03-30T09:57:17.964Z,26.9
2019-03-30T09:58:08.002Z,26.9
2019-03-30T09:58:56.946Z,26.9
2019-03-30T09:59:47.187Z,26.9
2019-03-30T10:00:37.906Z,26.9
2019-03-30T10:01:28.197Z,26.8
2019-03-30T10:02:17.912Z,26.1
2019-03-30T10:03:11.398Z,26.3
2019-03-30T10:03:57.102Z,25.9
2019-03-30T10:06:38.176Z,25.5
2019-03-30T10:07:14.993Z,25.7
2019-03-30T10:08:05.212Z,25.9
2019-03-30T10:08:55.535Z,26.3
2019-03-30T10:09:47.837Z,26.6
2019-03-30T10:10:34.650Z,26.8
2019-03-30T10:11:24.869Z,26.9
2019-03-30T10:12:14.939Z,27
2019-03-30T10:13:05.381Z,27
2019-03-30T10:13:54.916Z,27.1
2019-03-30T10:14:45.157Z,27.1
2019-03-30T10:15:35.737Z,27.2
2019-03-30T10:16:26.288Z,27.2
2019-03-30T10:17:16.349Z,27.1
2019-03-30T10:18:05.978Z,27.2
2019-03-30T10:18:55.418Z,27.1
2019-03-30T10:20:05.350Z,27.1
2019-03-30T10:20:36.928Z,27.1
2019-03-30T10:21:26.151Z,27.1
2019-03-30T10:22:15.993Z,27.1
2019-03-30T10:23:06.401Z,27.1
2019-03-30T10:23:56.335Z,27.1
2019-03-30T10:24:48.911Z,27.1
2019-03-30T10:25:35.925Z,27.1
2019-03-30T10:26:26.965Z,27
2019-03-30T10:27:16.646Z,26.9
2019-03-30T10:28:06.855Z,26.9
2019-03-30T10:28:57.287Z,26.9
2019-03-30T10:29:46.500Z,26.8
2019-03-30T10:30:37.022Z,26.8
2019-03-30T10:31:26.597Z,26.8
2019-03-30T10:32:17.237Z,26.8
2019-03-30T10:33:07.065Z,26.8
2019-03-30T10:33:57.285Z,26.6
2019-03-30T10:34:50.587Z,26
2019-03-30T10:35:37.207Z,26.5
2019-03-30T10:36:27.418Z,25.9
2019-03-30T10:37:18.170Z,25.6
2019-03-30T10:38:07.645Z,25.5
2019-03-30T10:38:56.787Z,25.5
2019-03-30T10:39:47.482Z,25.7
2019-03-30T10:40:38.347Z,26.1
2019-03-30T10:41:28.078Z,26.4
2019-03-30T10:42:17.393Z,26.7
2019-03-30T10:43:08.508Z,26.8
2019-03-30T10:43:58.266Z,26.9
2019-03-30T10:44:48.070Z,27
2019-03-30T10:45:37.862Z,27.1
2019-03-30T10:46:28.124Z,27.1
2019-03-30T10:47:18.519Z,27.1
2019-03-30T10:48:07.804Z,27.2
2019-03-30T10:48:58.439Z,27.2
2019-03-30T10:49:48.693Z,27.2
2019-03-30T10:50:38.484Z,27.2
2019-03-30T10:51:29.192Z,27.3
2019-03-30T10:52:18.651Z,27.2
2019-03-30T10:53:08.424Z,27.2
2019-03-30T10:53:58.743Z,27.2
2019-03-30T10:55:03.639Z,27.2
2019-03-30T10:55:38.572Z,27.2
2019-03-30T10:56:28.736Z,27.2
2019-03-30T10:57:18.706Z,27.1
2019-03-30T10:58:11.261Z,27.1
2019-03-30T10:58:59.054Z,27.1
2019-03-30T10:59:49.462Z,27.1
2019-03-30T11:00:38.732Z,27.1
2019-03-30T11:01:28.923Z,27.1
2019-03-30T11:02:19.406Z,27.1
2019-03-30T11:03:09.930Z,27.1
2019-03-30T11:04:00.033Z,27.1
2019-03-30T11:04:48.451Z,27
2019-03-30T11:05:39.153Z,27
2019-03-30T11:06:29.671Z,26.3
2019-03-30T11:07:19.548Z,26.4
2019-03-30T11:08:10.333Z,26.3
2019-03-30T11:08:59.793Z,25.8
2019-03-30T11:09:52.599Z,25.6
2019-03-30T11:10:40.205Z,25.6
2019-03-30T11:11:30.453Z,25.6
2019-03-30T11:12:20.597Z,25.9
2019-03-30T11:13:10.444Z,26.3
2019-03-30T11:14:00.440Z,26.6
2019-03-30T11:14:50.593Z,26.8
2019-03-30T11:15:43.065Z,26.9
2019-03-30T11:16:30.132Z,26.9
2019-03-30T11:17:23.422Z,27
2019-03-30T11:18:10.183Z,27.1
2019-03-30T11:19:00.592Z,27.1
2019-03-30T11:19:50.094Z,27.2
2019-03-30T11:20:40.665Z,27.2
2019-03-30T11:21:30.949Z,27.2
2019-03-30T11:22:20.397Z,27.2
2019-03-30T11:23:10.724Z,27.2
2019-03-30T11:24:00.132Z,27.2
2019-03-30T11:24:50.749Z,27.2
2019-03-30T11:25:40.522Z,27.1
2019-03-30T11:26:31.679Z,27.1
2019-03-30T11:27:20.631Z,27.2
2019-03-30T11:28:11.539Z,27.1
2019-03-30T11:29:01.335Z,27.1
2019-03-30T11:29:50.131Z,27.1
2019-03-30T11:30:41.489Z,27.1
2019-03-30T11:31:32.076Z,27.1
2019-03-30T11:32:21.299Z,27.1
2019-03-30T11:33:10.658Z,27.1
2019-03-30T11:34:01.926Z,27.1
2019-03-30T11:34:51.443Z,27.1
2019-03-30T11:35:42.321Z,27
2019-03-30T11:36:31.843Z,27
2019-03-30T11:37:21.636Z,27
2019-03-30T11:38:12.470Z,26.6
2019-03-30T11:39:02.229Z,26.2
2019-03-30T11:39:52.373Z,26.7
2019-03-30T11:40:42.603Z,25.9
2019-03-30T11:41:34.811Z,25.7
2019-03-30T11:42:21.926Z,25.6
2019-03-30T11:43:12.838Z,25.6
2019-03-30T11:44:02.933Z,25.8
2019-03-30T11:44:53.150Z,26.2
2019-03-30T11:45:43.001Z,26.5
2019-03-30T11:46:32.516Z,26.7
2019-03-30T11:47:23.195Z,26.8
2019-03-30T11:48:12.685Z,26.9
2019-03-30T11:49:01.555Z,27
2019-03-30T11:49:52.609Z,27.1
2019-03-30T11:50:42.707Z,27.1
2019-03-30T11:51:33.477Z,27.2
2019-03-30T11:52:23.152Z,27.2
2019-03-30T11:53:13.640Z,27.3
2019-03-30T11:54:05.387Z,27.3
2019-03-30T11:54:53.410Z,27.3
2019-03-30T11:55:42.690Z,27.2
2019-03-30T11:56:33.021Z,27.3
2019-03-30T11:57:22.908Z,27.3
2019-03-30T11:58:12.882Z,27.3
2019-03-30T11:59:03.202Z,27.2
2019-03-30T11:59:53.224Z,27.3
2019-03-30T12:00:42.782Z,27.3
2019-03-30T12:01:33.487Z,27.3
2019-03-30T12:02:37.577Z,27.2
2019-03-30T12:03:13.487Z,27.2
2019-03-30T12:04:02.997Z,27.2
2019-03-30T12:06:25.829Z,27.2
2019-03-30T12:07:15.792Z,27.2
2019-03-30T12:08:20.080Z,27.1
2019-03-30T12:08:56.436Z,27.1
2019-03-30T12:10:15.549Z,27.1
2019-03-30T12:10:49.679Z,26.3
2019-03-30T12:11:25.299Z,26.5
2019-03-30T12:13:21.311Z,25.8
2019-03-30T12:13:56.514Z,25.6
2019-03-30T12:14:45.898Z,25.6
2019-03-30T12:15:37.543Z,25.6
2019-03-30T12:16:41.031Z,25.8
2019-03-30T12:17:16.771Z,26.4
2019-03-30T12:18:07.307Z,26.6
2019-03-30T12:19:15.761Z,26.8
2019-03-30T12:19:46.169Z,26.9
2019-03-30T12:20:36.789Z,26.9
2019-03-30T12:21:26.268Z,27.1
2019-03-30T12:22:16.301Z,27.1
2019-03-30T12:23:07.051Z,27.2
2019-03-30T12:23:56.563Z,27.2
2019-03-30T12:24:45.680Z,27.3
2019-03-30T12:25:46.941Z,27.3
2019-03-30T12:26:26.623Z,27.3
2019-03-30T12:27:16.718Z,27.3
2019-03-30T12:28:05.369Z,27.3
2019-03-30T12:28:57.120Z,27.3
2019-03-30T12:29:51.078Z,27.3
2019-03-30T12:30:36.895Z,27.3
2019-03-30T12:31:27.305Z,27.3
2019-03-30T12:32:17.373Z,27.3
2019-03-30T12:33:06.885Z,27.3
2019-03-30T12:33:56.815Z,27.3
2019-03-30T12:34:47.391Z,27.3
2019-03-30T12:35:36.659Z,27.3
2019-03-30T12:36:27.468Z,27.3
2019-03-30T12:37:17.943Z,27.3
2019-03-30T12:38:07.285Z,27.2
2019-03-30T12:38:57.661Z,27.2
2019-03-30T12:39:47.420Z,27.2
2019-03-30T12:40:37.203Z,27.2
2019-03-30T12:41:27.542Z,27.1
2019-03-30T12:42:18.120Z,27.1
2019-03-30T12:43:08.187Z,26.6
2019-03-30T12:43:58.055Z,26.3
2019-03-30T12:44:47.722Z,26.6
2019-03-30T12:45:37.304Z,25.9
2019-03-30T12:46:27.982Z,25.7
2019-03-30T12:47:20.727Z,25.7
2019-03-30T12:48:12.559Z,25.6
2019-03-30T12:49:13.015Z,25.9
2019-03-30T12:49:51.219Z,26.3
2019-03-30T14:07:23.928Z,27.2
2019-03-30T14:08:14.193Z,27.2
2019-03-30T14:09:04.904Z,27.2
2019-03-30T14:09:55.128Z,27.2
2019-03-30T14:10:48.093Z,27.1
2019-03-30T14:11:34.468Z,27.2
2019-03-30T14:12:24.555Z,27.1
2019-03-30T14:13:14.368Z,27.1
2019-03-30T14:14:04.430Z,27.1
2019-03-30T14:14:54.208Z,27.1
2019-03-30T14:15:44.311Z,27.1
2019-03-30T14:16:34.593Z,27.1
2019-03-30T14:17:28.555Z,27.1
2019-03-30T14:18:14.760Z,27.1
2019-03-30T14:19:05.300Z,27.1
2019-03-30T14:19:54.338Z,27
2019-03-30T14:20:45.381Z,27
2019-03-30T14:21:35.225Z,27
2019-03-30T14:22:24.963Z,26.5
2019-03-30T14:23:16.107Z,26.3
2019-03-30T14:24:05.655Z,26.7
2019-03-30T14:24:55.706Z,26.1
2019-03-30T14:25:46.241Z,25.9
2019-03-30T14:26:41.636Z,25.8
2019-03-30T14:27:26.149Z,25.8
2019-03-30T14:28:16.450Z,26.1
2019-03-30T14:29:06.466Z,26.4
2019-03-30T14:30:00.424Z,26.8
2019-03-30T14:30:46.647Z,26.9
2019-03-30T14:31:36.903Z,27
2019-03-30T14:32:26.993Z,27.1
2019-03-30T14:33:16.776Z,27.1
2019-03-30T14:34:06.101Z,27.2
2019-03-30T14:34:57.193Z,27.3
2019-03-30T14:35:50.535Z,27.3
2019-03-30T14:36:36.477Z,27.3
2019-03-30T14:37:26.293Z,27.3
2019-03-30T14:38:16.848Z,27.3
2019-03-30T14:39:07.061Z,27.3
2019-03-30T14:39:56.513Z,27.3
2019-03-30T14:40:46.218Z,27.3
2019-03-30T14:41:36.841Z,27.3
2019-03-30T14:42:27.452Z,27.3
2019-03-30T14:43:16.686Z,27.3
2019-03-30T14:44:07.673Z,27.3
2019-03-30T14:44:57.145Z,27.3
2019-03-30T14:45:47.998Z,27.3
2019-03-30T14:46:38.103Z,27.2
2019-03-30T14:47:27.871Z,27.2
2019-03-30T14:48:18.243Z,27.2
2019-03-30T14:49:07.360Z,27.2
2019-03-30T14:49:58.337Z,27.2
2019-03-30T14:50:48.030Z,27.2
2019-03-30T14:51:38.114Z,27.1
2019-03-30T14:52:28.265Z,27.1
2019-03-30T14:53:20.549Z,27.1
2019-03-30T14:54:08.438Z,27.1
2019-03-30T14:55:03.833Z,27.1
2019-03-30T14:55:51.473Z,27
2019-03-30T14:56:53.866Z,26.9
2019-03-30T14:57:28.769Z,26.4
2019-03-30T14:58:19.804Z,26.3
2019-03-30T14:59:23.979Z,26.8
2019-03-30T14:59:59.487Z,26.1
2019-03-30T15:00:50.507Z,25.9
2019-03-30T15:01:40.392Z,25.9
2019-03-30T15:02:28.827Z,25.9
2019-03-30T15:03:19.406Z,26.1
2019-03-30T15:04:09.536Z,26.4
2019-03-30T15:05:03.159Z,26.8
2019-03-30T15:05:49.427Z,26.9
2019-03-30T15:06:39.791Z,27.1
2019-03-30T15:07:28.707Z,27.2
2019-03-30T15:08:19.246Z,27.3
2019-03-30T15:09:08.901Z,27.3
2019-03-30T15:09:59.736Z,27.3
2019-03-30T15:10:49.249Z,27.3
2019-03-30T15:11:42.366Z,27.4
2019-03-30T15:12:29.920Z,27.4
2019-03-30T15:13:19.319Z,27.4
2019-03-30T15:14:09.029Z,27.4
2019-03-30T15:14:59.628Z,27.4
2019-03-30T15:15:49.236Z,27.4
2019-03-30T15:16:39.535Z,27.3
2019-03-30T15:17:30.295Z,27.3
2019-03-30T15:18:19.793Z,27.3
2019-03-30T15:19:09.970Z,27.3
2019-03-30T15:20:00.453Z,27.3
2019-03-30T15:20:50.328Z,27.3
2019-03-30T15:21:40.323Z,27.3
2019-03-30T15:22:29.893Z,27.3
2019-03-30T15:23:20.161Z,27.3
2019-03-30T15:24:10.651Z,27.3
2019-03-30T15:25:00.498Z,27.3
2019-03-30T15:25:50.832Z,27.3
2019-03-30T15:26:41.544Z,27.2
2019-03-30T15:27:31.476Z,27.2
2019-03-30T15:28:21.180Z,27.1
2019-03-30T15:29:10.817Z,27.1
2019-03-30T15:30:01.983Z,27.1
2019-03-30T15:30:50.927Z,27.1
2019-03-30T15:31:41.287Z,27.1
2019-03-30T15:32:31.860Z,27
2019-03-30T15:33:20.862Z,27
2019-03-30T15:34:11.494Z,26.6
2019-03-30T15:35:05.690Z,26.3
2019-03-30T15:35:51.640Z,26.7
2019-03-30T15:36:41.759Z,26.2
2019-03-30T15:37:30.669Z,26
2019-03-30T15:38:25.590Z,25.9
2019-03-30T15:39:12.362Z,25.9
2019-03-30T15:40:02.302Z,25.9
2019-03-30T15:40:55.354Z,26.1
2019-03-30T15:41:41.794Z,26.3